sensor_id;sensor_type;location;lat;lon;timestamp;temperature;humidity
17994;DHT22;9122;48.406;9.984;2023-09-08T00:00:13;20.40;84.30
17994;DHT22;9122;48.406;9.984;2023-09-08T00:02:58;20.30;84.40
17994;DHT22;9122;48.406;9.984;2023-09-08T00:05:42;20.30;99.90
17994;DHT22;9122;48.406;9.984;2023-09-08T00:08:26;20.20;84.80
17994;DHT22;9122;48.406;9.984;2023-09-08T00:11:10;20.20;85.00
17994;DHT22;9122;48.406;9.984;2023-09-08T00:13:54;20.10;85.10
17994;DHT22;9122;48.406;9.984;2023-09-08T00:16:38;20.10;85.30
17994;DHT22;9122;48.406;9.984;2023-09-08T00:19:26;20.10;85.40
17994;DHT22;9122;48.406;9.984;2023-09-08T00:22:11;20.00;85.40
17994;DHT22;9122;48.406;9.984;2023-09-08T00:24:56;20.00;85.50
17994;DHT22;9122;48.406;9.984;2023-09-08T00:27:40;20.00;85.60
17994;DHT22;9122;48.406;9.984;2023-09-08T00:30:24;19.90;99.90
17994;DHT22;9122;48.406;9.984;2023-09-08T00:33:09;19.90;85.80
17994;DHT22;9122;48.406;9.984;2023-09-08T00:35:56;19.80;85.80
17994;DHT22;9122;48.406;9.984;2023-09-08T00:38:41;19.80;85.90
17994;DHT22;9122;48.406;9.984;2023-09-08T00:41:26;19.80;86.00
17994;DHT22;9122;48.406;9.984;2023-09-08T00:44:10;19.70;86.10
17994;DHT22;9122;48.406;9.984;2023-09-08T00:46:56;19.70;86.30
17994;DHT22;9122;48.406;9.984;2023-09-08T00:49:40;19.70;86.50
17994;DHT22;9122;48.406;9.984;2023-09-08T00:52:25;19.60;86.60
17994;DHT22;9122;48.406;9.984;2023-09-08T00:55:15;19.60;86.90
17994;DHT22;9122;48.406;9.984;2023-09-08T00:58:01;19.50;87.20
17994;DHT22;9122;48.406;9.984;2023-09-08T01:00:46;19.50;87.30
17994;DHT22;9122;48.406;9.984;2023-09-08T01:03:30;19.40;99.90
17994;DHT22;9122;48.406;9.984;2023-09-08T01:06:14;19.40;99.90
17994;DHT22;9122;48.406;9.984;2023-09-08T01:08:59;19.40;87.70
17994;DHT22;9122;48.406;9.984;2023-09-08T01:11:44;19.30;87.70
17994;DHT22;9122;48.406;9.984;2023-09-08T01:14:29;19.50;88.00
17994;DHT22;9122;48.406;9.984;2023-09-08T01:17:13;19.20;99.90
17994;DHT22;9122;48.406;9.984;2023-09-08T01:20:04;19.40;87.90
17994;DHT22;9122;48.406;9.984;2023-09-08T01:26:08;19.20;87.70
17994;DHT22;9122;48.406;9.984;2023-09-08T01:28:54;19.20;88.10
17994;DHT22;9122;48.406;9.984;2023-09-08T01:31:39;19.00;99.90
17994;DHT22;9122;48.406;9.984;2023-09-08T01:34:23;19.00;99.90
17994;DHT22;9122;48.406;9.984;2023-09-08T01:37:08;19.10;88.50
17994;DHT22;9122;48.406;9.984;2023-09-08T01:39:54;19.10;87.70
17994;DHT22;9122;48.406;9.984;2023-09-08T01:42:39;19.00;88.40
17994;DHT22;9122;48.406;9.984;2023-09-08T01:45:23;18.80;99.90
17994;DHT22;9122;48.406;9.984;2023-09-08T01:48:08;18.90;88.60
17994;DHT22;9122;48.406;9.984;2023-09-08T01:53:39;18.80;87.90
17994;DHT22;9122;48.406;9.984;2023-09-08T01:56:23;18.80;88.80
17994;DHT22;9122;48.406;9.984;2023-09-08T01:59:07;18.70;89.00
17994;DHT22;9122;48.406;9.984;2023-09-08T02:01:51;18.70;89.10
17994;DHT22;9122;48.406;9.984;2023-09-08T02:04:35;18.80;99.90
17994;DHT22;9122;48.406;9.984;2023-09-08T02:07:19;18.70;89.30
17994;DHT22;9122;48.406;9.984;2023-09-08T02:10:04;18.70;89.30
17994;DHT22;9122;48.406;9.984;2023-09-08T02:12:48;18.60;89.50
17994;DHT22;9122;48.406;9.984;2023-09-08T02:15:35;18.50;99.90
17994;DHT22;9122;48.406;9.984;2023-09-08T02:18:20;18.50;89.90
17994;DHT22;9122;48.406;9.984;2023-09-08T02:21:05;18.60;90.00
17994;DHT22;9122;48.406;9.984;2023-09-08T02:23:49;18.50;90.00
17994;DHT22;9122;48.406;9.984;2023-09-08T02:26:33;18.40;99.90
17994;DHT22;9122;48.406;9.984;2023-09-08T02:29:18;18.40;90.10
17994;DHT22;9122;48.406;9.984;2023-09-08T02:32:02;18.40;90.00
17994;DHT22;9122;48.406;9.984;2023-09-08T02:34:47;18.40;90.00
17994;DHT22;9122;48.406;9.984;2023-09-08T02:37:33;18.40;90.00
17994;DHT22;9122;48.406;9.984;2023-09-08T02:40:17;18.20;99.90
17994;DHT22;9122;48.406;9.984;2023-09-08T02:43:03;18.20;90.10
17994;DHT22;9122;48.406;9.984;2023-09-08T02:45:48;18.20;90.10
17994;DHT22;9122;48.406;9.984;2023-09-08T02:48:32;18.20;90.40
17994;DHT22;9122;48.406;9.984;2023-09-08T02:51:17;18.10;90.30
17994;DHT22;9122;48.406;9.984;2023-09-08T02:54:01;18.10;99.90
17994;DHT22;9122;48.406;9.984;2023-09-08T02:56:45;18.20;90.50
17994;DHT22;9122;48.406;9.984;2023-09-08T02:59:29;18.00;99.90
17994;DHT22;9122;48.406;9.984;2023-09-08T03:02:13;18.00;99.90
17994;DHT22;9122;48.406;9.984;2023-09-08T03:04:57;18.00;90.50
17994;DHT22;9122;48.406;9.984;2023-09-08T03:07:41;18.00;90.50
17994;DHT22;9122;48.406;9.984;2023-09-08T03:10:25;17.90;90.60
17994;DHT22;9122;48.406;9.984;2023-09-08T03:13:12;18.00;99.90
17994;DHT22;9122;48.406;9.984;2023-09-08T03:15:56;17.80;90.60
17994;DHT22;9122;48.406;9.984;2023-09-08T03:18:41;17.90;90.60
17994;DHT22;9122;48.406;9.984;2023-09-08T03:21:25;17.80;90.70
17994;DHT22;9122;48.406;9.984;2023-09-08T03:24:09;17.80;91.00
17994;DHT22;9122;48.406;9.984;2023-09-08T03:26:54;17.70;90.60
17994;DHT22;9122;48.406;9.984;2023-09-08T03:29:38;17.70;90.70
17994;DHT22;9122;48.406;9.984;2023-09-08T03:32:22;17.70;90.70
17994;DHT22;9122;48.406;9.984;2023-09-08T03:35:08;17.70;90.80
17994;DHT22;9122;48.406;9.984;2023-09-08T03:37:52;17.70;99.90
17994;DHT22;9122;48.406;9.984;2023-09-08T03:40:36;17.70;90.90
17994;DHT22;9122;48.406;9.984;2023-09-08T03:43:20;17.60;91.00
17994;DHT22;9122;48.406;9.984;2023-09-08T03:46:05;17.50;90.90
17994;DHT22;9122;48.406;9.984;2023-09-08T03:48:49;17.50;99.90
17994;DHT22;9122;48.406;9.984;2023-09-08T03:51:39;17.50;90.90
17994;DHT22;9122;48.406;9.984;2023-09-08T03:54:25;17.50;99.90
17994;DHT22;9122;48.406;9.984;2023-09-08T03:57:09;17.50;91.00
17994;DHT22;9122;48.406;9.984;2023-09-08T03:59:53;17.50;90.90
17994;DHT22;9122;48.406;9.984;2023-09-08T04:02:40;17.40;91.10
17994;DHT22;9122;48.406;9.984;2023-09-08T04:05:24;17.40;91.10
17994;DHT22;9122;48.406;9.984;2023-09-08T04:08:08;17.40;91.30
17994;DHT22;9122;48.406;9.984;2023-09-08T04:13:37;17.60;99.90
17994;DHT22;9122;48.406;9.984;2023-09-08T04:16:21;17.30;91.60
17994;DHT22;9122;48.406;9.984;2023-09-08T04:19:06;17.30;99.90
17994;DHT22;9122;48.406;9.984;2023-09-08T04:21:50;17.20;91.90
17994;DHT22;9122;48.406;9.984;2023-09-08T04:24:35;17.20;91.70
17994;DHT22;9122;48.406;9.984;2023-09-08T04:27:21;17.20;92.00
17994;DHT22;9122;48.406;9.984;2023-09-08T04:30:06;17.20;91.80
17994;DHT22;9122;48.406;9.984;2023-09-08T04:35:35;17.10;91.40
17994;DHT22;9122;48.406;9.984;2023-09-08T04:38:19;17.10;91.70
17994;DHT22;9122;48.406;9.984;2023-09-08T04:41:04;17.00;91.70
17994;DHT22;9122;48.406;9.984;2023-09-08T04:46:32;16.90;91.50
17994;DHT22;9122;48.406;9.984;2023-09-08T04:49:17;17.00;99.90
17994;DHT22;9122;48.406;9.984;2023-09-08T04:52:02;16.90;92.00
17994;DHT22;9122;48.406;9.984;2023-09-08T04:54:47;16.90;92.10
17994;DHT22;9122;48.406;9.984;2023-09-08T04:57:31;16.90;92.10
17994;DHT22;9122;48.406;9.984;2023-09-08T05:00:15;16.90;99.90
17994;DHT22;9122;48.406;9.984;2023-09-08T05:02:59;16.80;92.30
17994;DHT22;9122;48.406;9.984;2023-09-08T05:05:45;16.90;92.30
17994;DHT22;9122;48.406;9.984;2023-09-08T05:08:29;16.90;92.20
17994;DHT22;9122;48.406;9.984;2023-09-08T05:11:13;16.90;92.40
17994;DHT22;9122;48.406;9.984;2023-09-08T05:13:58;16.80;92.40
17994;DHT22;9122;48.406;9.984;2023-09-08T05:16:42;16.80;92.50
17994;DHT22;9122;48.406;9.984;2023-09-08T05:19:42;16.80;92.40
17994;DHT22;9122;48.406;9.984;2023-09-08T05:22:26;16.70;99.90
17994;DHT22;9122;48.406;9.984;2023-09-08T05:25:11;16.70;99.90
17994;DHT22;9122;48.406;9.984;2023-09-08T05:27:55;16.90;99.90
17994;DHT22;9122;48.406;9.984;2023-09-08T05:30:40;16.80;99.90
17994;DHT22;9122;48.406;9.984;2023-09-08T05:33:25;16.90;93.10
17994;DHT22;9122;48.406;9.984;2023-09-08T05:36:09;16.90;92.90
17994;DHT22;9122;48.406;9.984;2023-09-08T05:38:53;16.90;92.80
17994;DHT22;9122;48.406;9.984;2023-09-08T05:41:38;16.60;93.10
17994;DHT22;9122;48.406;9.984;2023-09-08T05:44:22;17.00;99.90
17994;DHT22;9122;48.406;9.984;2023-09-08T05:49:51;17.00;92.40
17994;DHT22;9122;48.406;9.984;2023-09-08T05:52:35;17.00;93.00
17994;DHT22;9122;48.406;9.984;2023-09-08T05:55:19;17.10;93.00
17994;DHT22;9122;48.406;9.984;2023-09-08T05:58:04;17.10;93.00
17994;DHT22;9122;48.406;9.984;2023-09-08T06:03:35;17.20;92.40
17994;DHT22;9122;48.406;9.984;2023-09-08T06:06:20;17.30;93.10
17994;DHT22;9122;48.406;9.984;2023-09-08T06:09:05;17.40;93.20
17994;DHT22;9122;48.406;9.984;2023-09-08T06:11:51;17.50;99.90
17994;DHT22;9122;48.406;9.984;2023-09-08T06:14:36;17.40;92.70
17994;DHT22;9122;48.406;9.984;2023-09-08T06:17:20;17.70;99.90
17994;DHT22;9122;48.406;9.984;2023-09-08T06:20:05;17.70;92.70
17994;DHT22;9122;48.406;9.984;2023-09-08T06:22:49;17.80;92.60
17994;DHT22;9122;48.406;9.984;2023-09-08T06:25:34;18.10;99.90
17994;DHT22;9122;48.406;9.984;2023-09-08T06:28:19;18.10;92.30
17994;DHT22;9122;48.406;9.984;2023-09-08T06:31:04;18.20;99.90
17994;DHT22;9122;48.406;9.984;2023-09-08T06:33:49;18.30;92.20
17994;DHT22;9122;48.406;9.984;2023-09-08T06:36:35;18.30;92.20
17994;DHT22;9122;48.406;9.984;2023-09-08T06:39:20;18.60;92.10
17994;DHT22;9122;48.406;9.984;2023-09-08T06:42:04;18.40;91.90
17994;DHT22;9122;48.406;9.984;2023-09-08T06:44:49;18.60;91.90
17994;DHT22;9122;48.406;9.984;2023-09-08T06:47:33;18.60;91.70
17994;DHT22;9122;48.406;9.984;2023-09-08T06:50:17;18.70;99.90
17994;DHT22;9122;48.406;9.984;2023-09-08T06:53:01;18.80;91.60
17994;DHT22;9122;48.406;9.984;2023-09-08T06:55:45;18.90;91.50
17994;DHT22;9122;48.406;9.984;2023-09-08T06:58:35;19.00;91.60
17994;DHT22;9122;48.406;9.984;2023-09-08T07:01:19;19.20;99.90
17994;DHT22;9122;48.406;9.984;2023-09-08T07:06:48;19.30;99.90
17994;DHT22;9122;48.406;9.984;2023-09-08T07:09:37;19.40;91.60
17994;DHT22;9122;48.406;9.984;2023-09-08T07:12:21;19.50;91.10
17994;DHT22;9122;48.406;9.984;2023-09-08T07:15:05;19.50;91.00
17994;DHT22;9122;48.406;9.984;2023-09-08T07:17:50;19.60;91.10
17994;DHT22;9122;48.406;9.984;2023-09-08T07:20:34;19.90;90.80
17994;DHT22;9122;48.406;9.984;2023-09-08T07:23:18;19.90;90.80
17994;DHT22;9122;48.406;9.984;2023-09-08T07:26:03;20.00;90.80
17994;DHT22;9122;48.406;9.984;2023-09-08T07:28:48;20.40;99.90
17994;DHT22;9122;48.406;9.984;2023-09-08T07:31:33;20.20;90.40
17994;DHT22;9122;48.406;9.984;2023-09-08T07:34:17;20.50;99.90
17994;DHT22;9122;48.406;9.984;2023-09-08T07:37:01;20.60;89.40
17994;DHT22;9122;48.406;9.984;2023-09-08T07:39:46;20.80;88.90
17994;DHT22;9122;48.406;9.984;2023-09-08T07:42:30;21.30;99.90
17994;DHT22;9122;48.406;9.984;2023-09-08T07:45:14;21.40;87.70
17994;DHT22;9122;48.406;9.984;2023-09-08T07:47:59;21.60;88.10
17994;DHT22;9122;48.406;9.984;2023-09-08T07:50:46;21.70;87.10
17994;DHT22;9122;48.406;9.984;2023-09-08T07:53:32;22.10;86.70
17994;DHT22;9122;48.406;9.984;2023-09-08T07:56:16;22.30;86.00
17994;DHT22;9122;48.406;9.984;2023-09-08T07:59:00;22.40;85.40
17994;DHT22;9122;48.406;9.984;2023-09-08T08:01:45;22.60;84.70
17994;DHT22;9122;48.406;9.984;2023-09-08T08:04:29;22.80;84.00
17994;DHT22;9122;48.406;9.984;2023-09-08T08:07:13;23.00;83.10
17994;DHT22;9122;48.406;9.984;2023-09-08T08:09:57;23.10;82.10
17994;DHT22;9122;48.406;9.984;2023-09-08T08:12:41;23.50;99.90
17994;DHT22;9122;48.406;9.984;2023-09-08T08:15:37;23.60;99.90
17994;DHT22;9122;48.406;9.984;2023-09-08T08:18:21;23.60;80.30
17994;DHT22;9122;48.406;9.984;2023-09-08T08:21:06;23.70;79.80
17994;DHT22;9122;48.406;9.984;2023-09-08T08:23:50;23.90;79.50
17994;DHT22;9122;48.406;9.984;2023-09-08T08:26:35;23.80;99.90
17994;DHT22;9122;48.406;9.984;2023-09-08T08:29:20;23.90;79.50
17994;DHT22;9122;48.406;9.984;2023-09-08T08:32:04;23.80;99.90
17994;DHT22;9122;48.406;9.984;2023-09-08T08:34:49;23.90;99.90
17994;DHT22;9122;48.406;9.984;2023-09-08T08:37:33;24.00;99.90
17994;DHT22;9122;48.406;9.984;2023-09-08T08:40:18;24.10;99.90
17994;DHT22;9122;48.406;9.984;2023-09-08T08:43:02;23.70;80.00
17994;DHT22;9122;48.406;9.984;2023-09-08T08:45:48;23.90;79.60
17994;DHT22;9122;48.406;9.984;2023-09-08T08:48:33;23.90;79.00
17994;DHT22;9122;48.406;9.984;2023-09-08T08:51:19;23.90;99.90
17994;DHT22;9122;48.406;9.984;2023-09-08T08:54:05;24.00;78.40
17994;DHT22;9122;48.406;9.984;2023-09-08T08:56:50;24.10;77.90
17994;DHT22;9122;48.406;9.984;2023-09-08T08:59:35;24.20;77.90
17994;DHT22;9122;48.406;9.984;2023-09-08T09:02:19;24.20;76.90
17994;DHT22;9122;48.406;9.984;2023-09-08T09:05:06;24.30;77.80
17994;DHT22;9122;48.406;9.984;2023-09-08T09:07:51;24.50;99.80
17994;DHT22;9122;48.406;9.984;2023-09-08T09:10:36;24.40;76.80
17994;DHT22;9122;48.406;9.984;2023-09-08T09:13:20;24.50;75.80
17994;DHT22;9122;48.406;9.984;2023-09-08T09:16:05;24.60;75.70
17994;DHT22;9122;48.406;9.984;2023-09-08T09:18:56;24.60;75.30
17994;DHT22;9122;48.406;9.984;2023-09-08T09:21:48;24.70;74.50
17994;DHT22;9122;48.406;9.984;2023-09-08T09:24:40;24.80;74.80
17994;DHT22;9122;48.406;9.984;2023-09-08T09:27:25;24.90;74.80
17994;DHT22;9122;48.406;9.984;2023-09-08T09:30:10;24.90;75.30
17994;DHT22;9122;48.406;9.984;2023-09-08T09:33:02;25.00;74.80
17994;DHT22;9122;48.406;9.984;2023-09-08T09:35:53;25.20;72.60
17994;DHT22;9122;48.406;9.984;2023-09-08T09:38:38;25.10;72.10
17994;DHT22;9122;48.406;9.984;2023-09-08T09:44:08;25.40;71.80
17994;DHT22;9122;48.406;9.984;2023-09-08T09:46:53;25.50;98.60
17994;DHT22;9122;48.406;9.984;2023-09-08T09:49:48;25.50;73.20
17994;DHT22;9122;48.406;9.984;2023-09-08T09:52:38;25.60;73.50
17994;DHT22;9122;48.406;9.984;2023-09-08T09:55:23;25.80;73.20
17994;DHT22;9122;48.406;9.984;2023-09-08T09:58:09;25.90;72.40
17994;DHT22;9122;48.406;9.984;2023-09-08T10:00:55;26.00;72.20
17994;DHT22;9122;48.406;9.984;2023-09-08T10:03:39;26.10;98.30
17994;DHT22;9122;48.406;9.984;2023-09-08T10:06:25;26.30;97.70
17994;DHT22;9122;48.406;9.984;2023-09-08T10:09:09;26.20;71.00
17994;DHT22;9122;48.406;9.984;2023-09-08T10:12:03;26.20;70.40
17994;DHT22;9122;48.406;9.984;2023-09-08T10:14:48;26.40;69.40
17994;DHT22;9122;48.406;9.984;2023-09-08T10:17:36;26.40;70.40
17994;DHT22;9122;48.406;9.984;2023-09-08T10:20:25;26.50;70.70
17994;DHT22;9122;48.406;9.984;2023-09-08T10:23:23;26.50;70.50
17994;DHT22;9122;48.406;9.984;2023-09-08T10:26:11;26.60;70.20
17994;DHT22;9122;48.406;9.984;2023-09-08T10:31:42;26.70;68.60
17994;DHT22;9122;48.406;9.984;2023-09-08T10:34:28;26.90;69.00
17994;DHT22;9122;48.406;9.984;2023-09-08T10:37:23;26.80;69.60
17994;DHT22;9122;48.406;9.984;2023-09-08T10:40:22;26.90;69.90
17994;DHT22;9122;48.406;9.984;2023-09-08T10:43:08;27.00;68.90
17994;DHT22;9122;48.406;9.984;2023-09-08T10:48:46;27.20;69.00
17994;DHT22;9122;48.406;9.984;2023-09-08T10:51:31;27.20;69.30
17994;DHT22;9122;48.406;9.984;2023-09-08T10:54:45;27.20;97.60
17994;DHT22;9122;48.406;9.984;2023-09-08T10:57:33;27.30;67.80
17994;DHT22;9122;48.406;9.984;2023-09-08T11:00:18;27.40;69.50
17994;DHT22;9122;48.406;9.984;2023-09-08T11:03:03;27.40;69.40
17994;DHT22;9122;48.406;9.984;2023-09-08T11:08:34;27.50;67.10
17994;DHT22;9122;48.406;9.984;2023-09-08T11:11:19;27.60;69.40
17994;DHT22;9122;48.406;9.984;2023-09-08T11:16:48;27.70;66.90
17994;DHT22;9122;48.406;9.984;2023-09-08T11:19:45;27.70;69.30
17994;DHT22;9122;48.406;9.984;2023-09-08T11:22:30;27.90;97.80
17994;DHT22;9122;48.406;9.984;2023-09-08T11:25:14;27.80;68.40
17994;DHT22;9122;48.406;9.984;2023-09-08T11:27:58;27.90;68.20
17994;DHT22;9122;48.406;9.984;2023-09-08T11:30:46;27.90;68.80
17994;DHT22;9122;48.406;9.984;2023-09-08T11:33:34;27.90;69.80
17994;DHT22;9122;48.406;9.984;2023-09-08T11:36:18;28.00;69.50
17994;DHT22;9122;48.406;9.984;2023-09-08T11:39:04;28.00;69.10
17994;DHT22;9122;48.406;9.984;2023-09-08T11:41:50;28.10;69.50
17994;DHT22;9122;48.406;9.984;2023-09-08T11:44:35;28.10;69.00
17994;DHT22;9122;48.406;9.984;2023-09-08T11:50:05;28.10;96.30
17994;DHT22;9122;48.406;9.984;2023-09-08T11:52:51;28.10;96.80
17994;DHT22;9122;48.406;9.984;2023-09-08T11:58:21;28.30;66.80
17994;DHT22;9122;48.406;9.984;2023-09-08T12:01:06;28.60;98.20
17994;DHT22;9122;48.406;9.984;2023-09-08T12:03:52;28.40;68.80
17994;DHT22;9122;48.406;9.984;2023-09-08T12:06:39;28.30;69.50
17994;DHT22;9122;48.406;9.984;2023-09-08T12:12:12;28.40;66.90
17994;DHT22;9122;48.406;9.984;2023-09-08T12:14:56;28.40;69.60
17994;DHT22;9122;48.406;9.984;2023-09-08T12:17:50;28.50;68.20
17994;DHT22;9122;48.406;9.984;2023-09-08T12:20:36;28.50;68.10
17994;DHT22;9122;48.406;9.984;2023-09-08T12:23:21;28.50;69.30
17994;DHT22;9122;48.406;9.984;2023-09-08T12:28:50;28.40;96.40
17994;DHT22;9122;48.406;9.984;2023-09-08T12:31:35;28.50;69.20
17994;DHT22;9122;48.406;9.984;2023-09-08T12:34:20;28.50;68.00
17994;DHT22;9122;48.406;9.984;2023-09-08T12:37:06;28.50;67.60
17994;DHT22;9122;48.406;9.984;2023-09-08T12:39:51;28.80;96.30
17994;DHT22;9122;48.406;9.984;2023-09-08T12:42:35;28.50;66.50
17994;DHT22;9122;48.406;9.984;2023-09-08T12:45:22;28.70;96.70
17994;DHT22;9122;48.406;9.984;2023-09-08T12:48:07;28.50;68.30
17994;DHT22;9122;48.406;9.984;2023-09-08T12:50:52;28.50;67.30
17994;DHT22;9122;48.406;9.984;2023-09-08T12:53:36;28.50;67.00
17994;DHT22;9122;48.406;9.984;2023-09-08T12:56:21;28.50;66.60
17994;DHT22;9122;48.406;9.984;2023-09-08T12:59:05;28.50;66.10
17994;DHT22;9122;48.406;9.984;2023-09-08T13:01:50;28.40;95.80
17994;DHT22;9122;48.406;9.984;2023-09-08T13:04:34;28.40;95.90
17994;DHT22;9122;48.406;9.984;2023-09-08T13:07:18;28.60;66.10
17994;DHT22;9122;48.406;9.984;2023-09-08T13:10:02;28.60;65.80
17994;DHT22;9122;48.406;9.984;2023-09-08T13:18:17;28.60;65.70
17994;DHT22;9122;48.406;9.984;2023-09-08T13:21:01;28.70;96.30
17994;DHT22;9122;48.406;9.984;2023-09-08T13:23:46;28.60;66.20
17994;DHT22;9122;48.406;9.984;2023-09-08T13:26:31;28.60;65.30
17994;DHT22;9122;48.406;9.984;2023-09-08T13:29:16;28.60;65.40
17994;DHT22;9122;48.406;9.984;2023-09-08T13:32:00;28.70;66.00
17994;DHT22;9122;48.406;9.984;2023-09-08T13:34:45;28.60;66.10
17994;DHT22;9122;48.406;9.984;2023-09-08T13:45:44;28.60;63.30
17994;DHT22;9122;48.406;9.984;2023-09-08T13:48:28;28.60;64.80
17994;DHT22;9122;48.406;9.984;2023-09-08T13:51:12;28.60;65.40
17994;DHT22;9122;48.406;9.984;2023-09-08T13:56:41;28.60;64.10
17994;DHT22;9122;48.406;9.984;2023-09-08T13:59:27;28.70;66.20
17994;DHT22;9122;48.406;9.984;2023-09-08T14:04:56;28.60;62.70
17994;DHT22;9122;48.406;9.984;2023-09-08T14:07:40;28.60;64.30
17994;DHT22;9122;48.406;9.984;2023-09-08T14:15:54;28.60;63.20
17994;DHT22;9122;48.406;9.984;2023-09-08T14:24:07;28.60;63.10
17994;DHT22;9122;48.406;9.984;2023-09-08T14:29:37;28.50;64.00
17994;DHT22;9122;48.406;9.984;2023-09-08T14:32:21;28.60;96.00
17994;DHT22;9122;48.406;9.984;2023-09-08T14:35:05;28.40;65.30
17994;DHT22;9122;48.406;9.984;2023-09-08T14:37:50;28.70;96.70
17994;DHT22;9122;48.406;9.984;2023-09-08T14:40:34;28.30;66.30
17994;DHT22;9122;48.406;9.984;2023-09-08T14:46:04;28.50;68.40
17994;DHT22;9122;48.406;9.984;2023-09-08T14:48:48;28.50;68.30
17994;DHT22;9122;48.406;9.984;2023-09-08T14:54:17;28.50;96.30
17994;DHT22;9122;48.406;9.984;2023-09-08T14:57:02;28.30;65.90
17994;DHT22;9122;48.406;9.984;2023-09-08T15:02:31;28.20;96.60
17994;DHT22;9122;48.406;9.984;2023-09-08T15:05:15;28.50;96.60
17994;DHT22;9122;48.406;9.984;2023-09-08T15:08:00;28.20;96.20
17994;DHT22;9122;48.406;9.984;2023-09-08T15:13:29;28.30;67.20
17994;DHT22;9122;48.406;9.984;2023-09-08T15:16:14;28.20;66.50
17994;DHT22;9122;48.406;9.984;2023-09-08T15:18:59;28.30;65.70
17994;DHT22;9122;48.406;9.984;2023-09-08T15:21:43;28.20;66.70
17994;DHT22;9122;48.406;9.984;2023-09-08T15:24:28;28.10;95.60
17994;DHT22;9122;48.406;9.984;2023-09-08T15:29:57;28.20;96.30
17994;DHT22;9122;48.406;9.984;2023-09-08T15:32:42;28.30;96.60
17994;DHT22;9122;48.406;9.984;2023-09-08T15:38:11;28.20;64.30
17994;DHT22;9122;48.406;9.984;2023-09-08T15:43:53;28.30;96.20
17994;DHT22;9122;48.406;9.984;2023-09-08T15:49:22;28.10;96.30
17994;DHT22;9122;48.406;9.984;2023-09-08T15:57:36;28.20;68.70
17994;DHT22;9122;48.406;9.984;2023-09-08T16:19:34;28.00;70.60
17994;DHT22;9122;48.406;9.984;2023-09-08T16:25:03;27.90;97.50
17994;DHT22;9122;48.406;9.984;2023-09-08T16:33:17;27.70;97.80
17994;DHT22;9122;48.406;9.984;2023-09-08T16:36:02;27.90;70.70
17994;DHT22;9122;48.406;9.984;2023-09-08T16:38:46;28.10;98.20
17994;DHT22;9122;48.406;9.984;2023-09-08T16:44:14;27.90;98.20
17994;DHT22;9122;48.406;9.984;2023-09-08T16:46:58;27.70;98.30
17994;DHT22;9122;48.406;9.984;2023-09-08T16:49:43;27.80;70.40
17994;DHT22;9122;48.406;9.984;2023-09-08T16:57:57;27.90;99.20
17994;DHT22;9122;48.406;9.984;2023-09-08T17:03:25;27.70;99.50
17994;DHT22;9122;48.406;9.984;2023-09-08T17:06:11;27.70;75.00
17994;DHT22;9122;48.406;9.984;2023-09-08T17:25:26;27.40;99.50
17994;DHT22;9122;48.406;9.984;2023-09-08T17:28:10;27.30;99.10
17994;DHT22;9122;48.406;9.984;2023-09-08T17:30:54;27.40;99.60
17994;DHT22;9122;48.406;9.984;2023-09-08T17:33:39;27.40;73.60
17994;DHT22;9122;48.406;9.984;2023-09-08T17:39:14;27.30;74.00
17994;DHT22;9122;48.406;9.984;2023-09-08T17:47:27;27.20;71.80
17994;DHT22;9122;48.406;9.984;2023-09-08T17:50:12;26.90;99.90
17994;DHT22;9122;48.406;9.984;2023-09-08T17:52:56;27.10;74.90
17994;DHT22;9122;48.406;9.984;2023-09-08T18:01:10;27.20;99.80
17994;DHT22;9122;48.406;9.984;2023-09-08T18:06:39;26.70;99.90
17994;DHT22;9122;48.406;9.984;2023-09-08T18:12:09;26.90;72.60
17994;DHT22;9122;48.406;9.984;2023-09-08T18:20:24;26.60;99.90
17994;DHT22;9122;48.406;9.984;2023-09-08T18:36:58;26.50;99.90
17994;DHT22;9122;48.406;9.984;2023-09-08T18:39:43;26.60;99.90
17994;DHT22;9122;48.406;9.984;2023-09-08T18:42:28;26.40;99.90
17994;DHT22;9122;48.406;9.984;2023-09-08T18:45:13;26.20;99.90
17994;DHT22;9122;48.406;9.984;2023-09-08T18:47:58;26.40;99.90
17994;DHT22;9122;48.406;9.984;2023-09-08T18:56:11;26.20;99.90
17994;DHT22;9122;48.406;9.984;2023-09-08T19:04:27;26.30;99.90
17994;DHT22;9122;48.406;9.984;2023-09-08T19:07:11;26.10;99.90
17994;DHT22;9122;48.406;9.984;2023-09-08T19:15:24;25.70;99.90
17994;DHT22;9122;48.406;9.984;2023-09-08T19:18:09;25.70;99.90
17994;DHT22;9122;48.406;9.984;2023-09-08T19:23:40;26.10;85.00
17994;DHT22;9122;48.406;9.984;2023-09-08T19:26:24;26.00;99.90
17994;DHT22;9122;48.406;9.984;2023-09-08T19:37:23;25.60;99.90
17994;DHT22;9122;48.406;9.984;2023-09-08T19:40:11;25.60;99.90
17994;DHT22;9122;48.406;9.984;2023-09-08T19:53:54;25.70;99.90
17994;DHT22;9122;48.406;9.984;2023-09-08T20:02:08;25.50;85.10
17994;DHT22;9122;48.406;9.984;2023-09-08T20:13:07;25.50;99.90
17994;DHT22;9122;48.406;9.984;2023-09-08T20:16:00;25.40;99.90
17994;DHT22;9122;48.406;9.984;2023-09-08T20:18:44;25.20;99.90
17994;DHT22;9122;48.406;9.984;2023-09-08T20:24:14;25.20;96.90
17994;DHT22;9122;48.406;9.984;2023-09-08T20:26:58;25.00;99.90
17994;DHT22;9122;48.406;9.984;2023-09-08T20:32:27;24.90;99.90
17994;DHT22;9122;48.406;9.984;2023-09-08T20:35:12;25.20;99.90
17994;DHT22;9122;48.406;9.984;2023-09-08T20:40:51;25.00;99.90
17994;DHT22;9122;48.406;9.984;2023-09-08T20:46:21;25.10;99.90
17994;DHT22;9122;48.406;9.984;2023-09-08T20:49:06;24.90;99.90
17994;DHT22;9122;48.406;9.984;2023-09-08T20:51:50;24.80;99.90
17994;DHT22;9122;48.406;9.984;2023-09-08T21:00:04;24.60;99.90
17994;DHT22;9122;48.406;9.984;2023-09-08T21:05:33;24.30;99.90
17994;DHT22;9122;48.406;9.984;2023-09-08T21:08:18;24.50;97.20
17994;DHT22;9122;48.406;9.984;2023-09-08T21:11:03;24.20;99.90
17994;DHT22;9122;48.406;9.984;2023-09-08T21:13:47;24.40;99.90
17994;DHT22;9122;48.406;9.984;2023-09-08T21:19:16;24.40;99.90
17994;DHT22;9122;48.406;9.984;2023-09-08T21:22:01;24.40;99.90
17994;DHT22;9122;48.406;9.984;2023-09-08T21:24:45;23.90;99.90
17994;DHT22;9122;48.406;9.984;2023-09-08T21:27:30;24.10;99.90
17994;DHT22;9122;48.406;9.984;2023-09-08T21:30:14;24.00;99.90
17994;DHT22;9122;48.406;9.984;2023-09-08T21:32:58;23.90;99.90
17994;DHT22;9122;48.406;9.984;2023-09-08T21:35:43;24.10;99.90
17994;DHT22;9122;48.406;9.984;2023-09-08T21:38:27;23.90;99.90
17994;DHT22;9122;48.406;9.984;2023-09-08T21:41:11;23.90;99.90
17994;DHT22;9122;48.406;9.984;2023-09-08T21:46:40;24.00;99.90
17994;DHT22;9122;48.406;9.984;2023-09-08T21:52:08;23.80;99.90
17994;DHT22;9122;48.406;9.984;2023-09-08T21:54:53;23.70;99.90
17994;DHT22;9122;48.406;9.984;2023-09-08T21:57:37;23.70;99.90
17994;DHT22;9122;48.406;9.984;2023-09-08T22:05:54;23.70;99.90
17994;DHT22;9122;48.406;9.984;2023-09-08T22:08:38;23.70;99.90
17994;DHT22;9122;48.406;9.984;2023-09-08T22:11:22;23.70;99.90
17994;DHT22;9122;48.406;9.984;2023-09-08T22:14:07;23.60;99.90
17994;DHT22;9122;48.406;9.984;2023-09-08T22:19:36;23.50;99.90
17994;DHT22;9122;48.406;9.984;2023-09-08T22:22:20;23.60;99.90
17994;DHT22;9122;48.406;9.984;2023-09-08T22:25:05;23.40;99.90
17994;DHT22;9122;48.406;9.984;2023-09-08T22:30:34;23.40;99.90